sensor_id;sensor_type;location;lat;lon;timestamp;pressure;altitude;pressure_sealevel;temperature
27715;BMP280;16051;53.024;8.630;2023-03-31T00:03:37;100272.16;;;12.26
27715;BMP280;16051;53.024;8.630;2023-03-31T00:07:43;100266.63;;;12.26
27715;BMP280;16051;53.024;8.630;2023-03-31T00:11:45;100251.78;;;12.24
27715;BMP280;16051;53.024;8.630;2023-03-31T00:15:47;100251.50;;;12.22
27715;BMP280;16051;53.024;8.630;2023-03-31T00:19:51;100243.44;;;12.18
27715;BMP280;16051;53.024;8.630;2023-03-31T00:23:56;100253.47;;;12.16
27715;BMP280;16051;53.024;8.630;2023-03-31T00:27:59;100245.44;;;12.18
27715;BMP280;16051;53.024;8.630;2023-03-31T00:32:01;100235.09;;;12.13
27715;BMP280;16051;53.024;8.630;2023-03-31T00:36:06;100232.38;;;12.18
27715;BMP280;16051;53.024;8.630;2023-03-31T00:40:09;100232.59;;;12.15
27715;BMP280;16051;53.024;8.630;2023-03-31T00:44:14;100221.78;;;12.17
27715;BMP280;16051;53.024;8.630;2023-03-31T00:48:19;100222.75;;;12.14
27715;BMP280;16051;53.024;8.630;2023-03-31T00:52:31;100226.06;;;12.18
27715;BMP280;16051;53.024;8.630;2023-03-31T00:56:59;100205.16;;;12.17
27715;BMP280;16051;53.024;8.630;2023-03-31T01:01:06;100203.63;;;12.16
27715;BMP280;16051;53.024;8.630;2023-03-31T01:05:08;100196.09;;;12.16
27715;BMP280;16051;53.024;8.630;2023-03-31T01:09:13;100189.72;;;12.05
27715;BMP280;16051;53.024;8.630;2023-03-31T01:13:19;100181.66;;;12.01
27715;BMP280;16051;53.024;8.630;2023-03-31T01:17:22;100168.94;;;12.15
27715;BMP280;16051;53.024;8.630;2023-03-31T01:22:12;100158.34;;;12.13
27715;BMP280;16051;53.024;8.630;2023-03-31T01:26:52;100146.75;;;12.09
27715;BMP280;16051;53.024;8.630;2023-03-31T01:41:20;100130.88;;;12.04
27715;BMP280;16051;53.024;8.630;2023-03-31T01:45:40;100132.13;;;12.09
27715;BMP280;16051;53.024;8.630;2023-03-31T01:49:52;100117.28;;;12.01
27715;BMP280;16051;53.024;8.630;2023-03-31T01:54:05;100105.16;;;11.98
27715;BMP280;16051;53.024;8.630;2023-03-31T01:58:15;100110.44;;;11.96
27715;BMP280;16051;53.024;8.630;2023-03-31T02:02:31;100099.09;;;11.94
27715;BMP280;16051;53.024;8.630;2023-03-31T02:06:39;100083.72;;;11.82
27715;BMP280;16051;53.024;8.630;2023-03-31T02:10:45;100085.25;;;11.89
27715;BMP280;16051;53.024;8.630;2023-03-31T02:14:53;100076.88;;;11.77
27715;BMP280;16051;53.024;8.630;2023-03-31T02:19:00;100079.63;;;11.72
27715;BMP280;16051;53.024;8.630;2023-03-31T02:23:33;100073.59;;;11.73
27715;BMP280;16051;53.024;8.630;2023-03-31T02:27:40;100078.44;;;11.84
27715;BMP280;16051;53.024;8.630;2023-03-31T02:31:49;100081.66;;;11.77
27715;BMP280;16051;53.024;8.630;2023-03-31T02:36:39;100061.19;;;11.63
27715;BMP280;16051;53.024;8.630;2023-03-31T02:41:02;100050.47;;;11.71
27715;BMP280;16051;53.024;8.630;2023-03-31T02:45:35;100043.94;;;11.74
27715;BMP280;16051;53.024;8.630;2023-03-31T02:49:31;100037.84;;;11.70
27715;BMP280;16051;53.024;8.630;2023-03-31T02:53:47;100041.19;;;11.79
27715;BMP280;16051;53.024;8.630;2023-03-31T02:58:40;100037.06;;;11.64
27715;BMP280;16051;53.024;8.630;2023-03-31T03:03:02;100015.25;;;11.71
27715;BMP280;16051;53.024;8.630;2023-03-31T03:07:20;100024.72;;;11.65
27715;BMP280;16051;53.024;8.630;2023-03-31T03:11:31;100022.56;;;11.74
27715;BMP280;16051;53.024;8.630;2023-03-31T03:15:52;100015.25;;;11.71
27715;BMP280;16051;53.024;8.630;2023-03-31T03:20:00;100008.47;;;11.72
27715;BMP280;16051;53.024;8.630;2023-03-31T03:24:09;100004.19;;;11.71
27715;BMP280;16051;53.024;8.630;2023-03-31T03:28:11;100002.19;;;11.72
27715;BMP280;16051;53.024;8.630;2023-03-31T03:32:13;99995.31;;;11.62
27715;BMP280;16051;53.024;8.630;2023-03-31T03:36:16;99989.53;;;11.65
27715;BMP280;16051;53.024;8.630;2023-03-31T03:40:19;99985.53;;;11.66
27715;BMP280;16051;53.024;8.630;2023-03-31T03:44:21;99976.16;;;11.53
27715;BMP280;16051;53.024;8.630;2023-03-31T03:48:24;99954.94;;;11.33
27715;BMP280;16051;53.024;8.630;2023-03-31T03:52:26;99965.06;;;11.47
27715;BMP280;16051;53.024;8.630;2023-03-31T03:56:30;99953.94;;;11.36
27715;BMP280;16051;53.024;8.630;2023-03-31T04:00:32;99942.63;;;11.28
27715;BMP280;16051;53.024;8.630;2023-03-31T04:04:34;99940.16;;;11.42
27715;BMP280;16051;53.024;8.630;2023-03-31T04:08:36;99931.09;;;11.35
27715;BMP280;16051;53.024;8.630;2023-03-31T04:12:40;99915.28;;;11.42
27715;BMP280;16051;53.024;8.630;2023-03-31T04:16:42;99912.94;;;11.23
27715;BMP280;16051;53.024;8.630;2023-03-31T04:20:46;99909.88;;;11.21
27715;BMP280;16051;53.024;8.630;2023-03-31T04:24:54;99890.75;;;11.12
27715;BMP280;16051;53.024;8.630;2023-03-31T04:28:59;99887.47;;;11.08
27715;BMP280;16051;53.024;8.630;2023-03-31T04:33:02;99868.13;;;11.08
27715;BMP280;16051;53.024;8.630;2023-03-31T04:37:06;99863.13;;;11.07
27715;BMP280;16051;53.024;8.630;2023-03-31T04:41:10;99851.09;;;11.15
27715;BMP280;16051;53.024;8.630;2023-03-31T04:45:14;99841.50;;;11.05
27715;BMP280;16051;53.024;8.630;2023-03-31T04:49:16;99835.91;;;10.94
27715;BMP280;16051;53.024;8.630;2023-03-31T04:53:18;99826.56;;;10.86
27715;BMP280;16051;53.024;8.630;2023-03-31T04:57:20;99825.31;;;10.81
27715;BMP280;16051;53.024;8.630;2023-03-31T05:01:23;99812.69;;;10.75
27715;BMP280;16051;53.024;8.630;2023-03-31T05:05:28;99801.94;;;10.77
27715;BMP280;16051;53.024;8.630;2023-03-31T05:09:31;99800.94;;;10.80
27715;BMP280;16051;53.024;8.630;2023-03-31T05:13:33;99799.41;;;10.79
27715;BMP280;16051;53.024;8.630;2023-03-31T05:17:37;99797.91;;;10.78
27715;BMP280;16051;53.024;8.630;2023-03-31T05:21:39;99792.88;;;10.76
27715;BMP280;16051;53.024;8.630;2023-03-31T05:25:41;99795.66;;;10.76
27715;BMP280;16051;53.024;8.630;2023-03-31T05:29:43;99792.41;;;10.83
27715;BMP280;16051;53.024;8.630;2023-03-31T05:33:46;99772.28;;;10.72
27715;BMP280;16051;53.024;8.630;2023-03-31T05:37:49;99777.78;;;10.72
27715;BMP280;16051;53.024;8.630;2023-03-31T05:41:51;99770.50;;;10.74
27715;BMP280;16051;53.024;8.630;2023-03-31T05:45:53;99767.75;;;10.74
27715;BMP280;16051;53.024;8.630;2023-03-31T05:49:56;99772.50;;;10.68
27715;BMP280;16051;53.024;8.630;2023-03-31T05:53:59;99766.75;;;10.72
27715;BMP280;16051;53.024;8.630;2023-03-31T05:58:01;99752.16;;;10.66
27715;BMP280;16051;53.024;8.630;2023-03-31T06:02:04;99749.66;;;10.68
27715;BMP280;16051;53.024;8.630;2023-03-31T06:06:08;99757.94;;;10.68
27715;BMP280;16051;53.024;8.630;2023-03-31T06:10:12;99755.47;;;10.75
27715;BMP280;16051;53.024;8.630;2023-03-31T06:14:14;99743.66;;;10.69
27715;BMP280;16051;53.024;8.630;2023-03-31T06:18:18;99738.09;;;10.64
27715;BMP280;16051;53.024;8.630;2023-03-31T06:22:21;99733.13;;;10.73
27715;BMP280;16051;53.024;8.630;2023-03-31T06:26:27;99722.56;;;10.66
27715;BMP280;16051;53.024;8.630;2023-03-31T06:30:29;99714.75;;;10.65
27715;BMP280;16051;53.024;8.630;2023-03-31T06:34:31;99712.75;;;10.71
27715;BMP280;16051;53.024;8.630;2023-03-31T06:38:36;99712.81;;;10.82
27715;BMP280;16051;53.024;8.630;2023-03-31T06:42:39;99712.81;;;10.76
27715;BMP280;16051;53.024;8.630;2023-03-31T06:46:44;99708.78;;;10.77
27715;BMP280;16051;53.024;8.630;2023-03-31T06:50:46;99703.56;;;10.85
27715;BMP280;16051;53.024;8.630;2023-03-31T06:54:49;99710.31;;;10.84
27715;BMP280;16051;53.024;8.630;2023-03-31T06:58:52;99706.03;;;10.83
27715;BMP280;16051;53.024;8.630;2023-03-31T07:02:54;99693.28;;;10.97
27715;BMP280;16051;53.024;8.630;2023-03-31T07:06:57;99689.25;;;10.98
27715;BMP280;16051;53.024;8.630;2023-03-31T07:11:01;99680.72;;;11.01
27715;BMP280;16051;53.024;8.630;2023-03-31T07:15:05;99685.53;;;11.06
27715;BMP280;16051;53.024;8.630;2023-03-31T07:19:07;99682.28;;;11.13
27715;BMP280;16051;53.024;8.630;2023-03-31T07:23:10;99670.47;;;11.13
27715;BMP280;16051;53.024;8.630;2023-03-31T07:27:14;99663.44;;;11.17
27715;BMP280;16051;53.024;8.630;2023-03-31T07:31:16;99660.19;;;11.19
27715;BMP280;16051;53.024;8.630;2023-03-31T07:35:19;99653.16;;;11.23
27715;BMP280;16051;53.024;8.630;2023-03-31T07:39:21;99656.66;;;11.29
27715;BMP280;16051;53.024;8.630;2023-03-31T07:43:25;99652.91;;;11.27
27715;BMP280;16051;53.024;8.630;2023-03-31T07:47:27;99637.84;;;11.28
27715;BMP280;16051;53.024;8.630;2023-03-31T07:51:29;99632.28;;;11.22
27715;BMP280;16051;53.024;8.630;2023-03-31T07:55:51;99636.81;;;11.25
27715;BMP280;16051;53.024;8.630;2023-03-31T07:59:54;99625.28;;;11.27
27715;BMP280;16051;53.024;8.630;2023-03-31T08:03:56;99615.22;;;11.29
27715;BMP280;16051;53.024;8.630;2023-03-31T08:07:59;99603.66;;;11.31
27715;BMP280;16051;53.024;8.630;2023-03-31T08:12:01;99600.66;;;11.46
27715;BMP280;16051;53.024;8.630;2023-03-31T08:16:05;99593.13;;;11.46
27715;BMP280;16051;53.024;8.630;2023-03-31T08:20:25;99577.53;;;11.49
27715;BMP280;16051;53.024;8.630;2023-03-31T08:24:27;99578.25;;;11.55
27715;BMP280;16051;53.024;8.630;2023-03-31T08:28:29;99569.97;;;11.60
27715;BMP280;16051;53.024;8.630;2023-03-31T08:32:34;99554.91;;;11.50
27715;BMP280;16051;53.024;8.630;2023-03-31T08:36:36;99567.19;;;11.55
27715;BMP280;16051;53.024;8.630;2023-03-31T08:40:40;99556.41;;;11.51
27715;BMP280;16051;53.024;8.630;2023-03-31T08:44:57;99558.69;;;11.53
27715;BMP280;16051;53.024;8.630;2023-03-31T08:49:03;99548.63;;;11.50
27715;BMP280;16051;53.024;8.630;2023-03-31T08:53:15;99541.56;;;11.43
27715;BMP280;16051;53.024;8.630;2023-03-31T08:57:25;99544.88;;;11.42
27715;BMP280;16051;53.024;8.630;2023-03-31T09:01:43;99527.53;;;11.30
27715;BMP280;16051;53.024;8.630;2023-03-31T09:05:58;99517.72;;;11.29
27715;BMP280;16051;53.024;8.630;2023-03-31T09:10:19;99517.50;;;11.27
27715;BMP280;16051;53.024;8.630;2023-03-31T09:14:30;99499.16;;;11.24
27715;BMP280;16051;53.024;8.630;2023-03-31T09:18:38;99496.13;;;11.27
27715;BMP280;16051;53.024;8.630;2023-03-31T09:23:10;99500.16;;;11.32
27715;BMP280;16051;53.024;8.630;2023-03-31T09:27:16;99489.31;;;11.40
27715;BMP280;16051;53.024;8.630;2023-03-31T09:31:21;99474.75;;;11.33
27715;BMP280;16051;53.024;8.630;2023-03-31T09:35:25;99474.28;;;11.29
27715;BMP280;16051;53.024;8.630;2023-03-31T09:39:30;99472.25;;;11.35
27715;BMP280;16051;53.024;8.630;2023-03-31T09:43:33;99471.50;;;11.29
27715;BMP280;16051;53.024;8.630;2023-03-31T09:47:40;99474.28;;;11.35
27715;BMP280;16051;53.024;8.630;2023-03-31T09:51:48;99464.19;;;11.43
27715;BMP280;16051;53.024;8.630;2023-03-31T09:55:59;99459.06;;;11.69
27715;BMP280;16051;53.024;8.630;2023-03-31T10:00:14;99457.03;;;11.87
27715;BMP280;16051;53.024;8.630;2023-03-31T10:04:22;99455.50;;;11.97
27715;BMP280;16051;53.024;8.630;2023-03-31T10:08:30;99439.56;;;12.08
27715;BMP280;16051;53.024;8.630;2023-03-31T10:12:36;99440.03;;;12.18
27715;BMP280;16051;53.024;8.630;2023-03-31T10:16:46;99425.38;;;12.23
27715;BMP280;16051;53.024;8.630;2023-03-31T10:20:50;99435.00;;;12.16
27715;BMP280;16051;53.024;8.630;2023-03-31T10:25:15;99435.25;;;12.13
27715;BMP280;16051;53.024;8.630;2023-03-31T10:29:23;99433.97;;;12.19
27715;BMP280;16051;53.024;8.630;2023-03-31T10:33:29;99418.19;;;12.09
27715;BMP280;16051;53.024;8.630;2023-03-31T10:37:35;99417.16;;;12.12
27715;BMP280;16051;53.024;8.630;2023-03-31T10:41:38;99419.16;;;12.17
27715;BMP280;16051;53.024;8.630;2023-03-31T10:45:47;99415.06;;;12.29
27715;BMP280;16051;53.024;8.630;2023-03-31T10:49:56;99411.47;;;12.34
27715;BMP280;16051;53.024;8.630;2023-03-31T10:54:00;99405.28;;;12.58
27715;BMP280;16051;53.024;8.630;2023-03-31T10:58:19;99403.38;;;12.71
27715;BMP280;16051;53.024;8.630;2023-03-31T11:07:39;99394.78;;;13.29
27715;BMP280;16051;53.024;8.630;2023-03-31T11:12:00;99390.09;;;13.43
27715;BMP280;16051;53.024;8.630;2023-03-31T11:16:17;99386.06;;;13.62
27715;BMP280;16051;53.024;8.630;2023-03-31T11:20:33;99386.53;;;13.66
27715;BMP280;16051;53.024;8.630;2023-03-31T11:25:12;99380.59;;;13.75
27715;BMP280;16051;53.024;8.630;2023-03-31T11:29:31;99376.31;;;13.93
27715;BMP280;16051;53.024;8.630;2023-03-31T11:34:03;99367.47;;;13.95
27715;BMP280;16051;53.024;8.630;2023-03-31T11:38:27;99378.44;;;13.87
27715;BMP280;16051;53.024;8.630;2023-03-31T11:42:50;99374.25;;;13.80
27715;BMP280;16051;53.024;8.630;2023-03-31T11:46:56;99371.97;;;13.79
27715;BMP280;16051;53.024;8.630;2023-03-31T11:51:16;99369.19;;;13.60
27715;BMP280;16051;53.024;8.630;2023-03-31T11:55:25;99363.13;;;13.43
27715;BMP280;16051;53.024;8.630;2023-03-31T11:59:31;99371.34;;;13.30
27715;BMP280;16051;53.024;8.630;2023-03-31T12:03:44;99362.19;;;13.16
27715;BMP280;16051;53.024;8.630;2023-03-31T12:07:57;99364.50;;;13.12
27715;BMP280;16051;53.024;8.630;2023-03-31T12:12:08;99360.84;;;13.23
27715;BMP280;16051;53.024;8.630;2023-03-31T12:16:22;99351.19;;;13.29
27715;BMP280;16051;53.024;8.630;2023-03-31T12:20:31;99361.59;;;13.23
27715;BMP280;16051;53.024;8.630;2023-03-31T12:24:35;99357.59;;;13.19
27715;BMP280;16051;53.024;8.630;2023-03-31T12:29:00;99350.38;;;13.10
27715;BMP280;16051;53.024;8.630;2023-03-31T12:33:11;99341.47;;;12.93
27715;BMP280;16051;53.024;8.630;2023-03-31T12:42:31;99342.66;;;13.65
27715;BMP280;16051;53.024;8.630;2023-03-31T12:46:53;99342.50;;;13.76
27715;BMP280;16051;53.024;8.630;2023-03-31T12:51:46;99341.00;;;13.75
27715;BMP280;16051;53.024;8.630;2023-03-31T12:55:54;99352.94;;;13.70
27715;BMP280;16051;53.024;8.630;2023-03-31T13:00:23;99346.63;;;13.51
27715;BMP280;16051;53.024;8.630;2023-03-31T13:04:34;99339.06;;;13.51
27715;BMP280;16051;53.024;8.630;2023-03-31T13:08:55;99335.47;;;13.38
27715;BMP280;16051;53.024;8.630;2023-03-31T13:13:05;99333.56;;;13.46
27715;BMP280;16051;53.024;8.630;2023-03-31T13:17:34;99334.88;;;13.45
27715;BMP280;16051;53.024;8.630;2023-03-31T13:22:31;99338.59;;;13.28
27715;BMP280;16051;53.024;8.630;2023-03-31T13:26:45;99331.78;;;13.29
27715;BMP280;16051;53.024;8.630;2023-03-31T13:30:51;99333.88;;;13.23
27715;BMP280;16051;53.024;8.630;2023-03-31T13:35:16;99328.78;;;13.27
27715;BMP280;16051;53.024;8.630;2023-03-31T13:40:06;99322.56;;;13.21
27715;BMP280;16051;53.024;8.630;2023-03-31T13:44:39;99324.50;;;13.26
27715;BMP280;16051;53.024;8.630;2023-03-31T13:49:03;99316.50;;;13.23
27715;BMP280;16051;53.024;8.630;2023-03-31T14:03:54;99311.53;;;13.91
27715;BMP280;16051;53.024;8.630;2023-03-31T14:08:14;99300.41;;;14.41
27715;BMP280;16051;53.024;8.630;2023-03-31T14:12:36;99303.25;;;14.94
27715;BMP280;16051;53.024;8.630;2023-03-31T14:16:47;99293.91;;;15.31
27715;BMP280;16051;53.024;8.630;2023-03-31T14:21:13;99302.56;;;15.40
27715;BMP280;16051;53.024;8.630;2023-03-31T14:25:34;99297.56;;;15.25
27715;BMP280;16051;53.024;8.630;2023-03-31T14:29:46;99290.25;;;15.36
27715;BMP280;16051;53.024;8.630;2023-03-31T14:34:14;99295.91;;;15.56
27715;BMP280;16051;53.024;8.630;2023-03-31T14:38:22;99294.75;;;15.39
27715;BMP280;16051;53.024;8.630;2023-03-31T14:42:29;99298.91;;;15.45
27715;BMP280;16051;53.024;8.630;2023-03-31T14:46:46;99294.31;;;15.35
27715;BMP280;16051;53.024;8.630;2023-03-31T14:50:48;99295.84;;;15.22
27715;BMP280;16051;53.024;8.630;2023-03-31T14:55:04;99292.78;;;15.00
27715;BMP280;16051;53.024;8.630;2023-03-31T14:59:07;99293.41;;;14.79
27715;BMP280;16051;53.024;8.630;2023-03-31T15:03:14;99296.72;;;14.65
27715;BMP280;16051;53.024;8.630;2023-03-31T15:07:17;99293.50;;;14.61
27715;BMP280;16051;53.024;8.630;2023-03-31T15:11:21;99296.38;;;14.42
27715;BMP280;16051;53.024;8.630;2023-03-31T15:15:23;99283.31;;;14.37
27715;BMP280;16051;53.024;8.630;2023-03-31T15:19:35;99289.47;;;14.30
27715;BMP280;16051;53.024;8.630;2023-03-31T15:23:40;99283.47;;;14.26
27715;BMP280;16051;53.024;8.630;2023-03-31T15:27:47;99281.81;;;14.36
27715;BMP280;16051;53.024;8.630;2023-03-31T15:31:50;99278.31;;;14.36
27715;BMP280;16051;53.024;8.630;2023-03-31T15:36:07;99273.34;;;14.28
27715;BMP280;16051;53.024;8.630;2023-03-31T15:40:20;99278.84;;;14.15
27715;BMP280;16051;53.024;8.630;2023-03-31T15:44:37;99272.09;;;14.11
27715;BMP280;16051;53.024;8.630;2023-03-31T15:48:50;99282.78;;;14.07
27715;BMP280;16051;53.024;8.630;2023-03-31T15:52:55;99262.59;;;14.06
27715;BMP280;16051;53.024;8.630;2023-03-31T15:57:00;99270.94;;;14.06
27715;BMP280;16051;53.024;8.630;2023-03-31T16:01:05;99277.88;;;14.00
27715;BMP280;16051;53.024;8.630;2023-03-31T16:05:34;99266.66;;;14.05
27715;BMP280;16051;53.024;8.630;2023-03-31T16:09:43;99266.09;;;13.94
27715;BMP280;16051;53.024;8.630;2023-03-31T16:13:49;99253.78;;;13.89
27715;BMP280;16051;53.024;8.630;2023-03-31T16:17:58;99272.16;;;13.92
27715;BMP280;16051;53.024;8.630;2023-03-31T16:22:03;99266.03;;;13.80
27715;BMP280;16051;53.024;8.630;2023-03-31T16:26:06;99266.25;;;13.82
27715;BMP280;16051;53.024;8.630;2023-03-31T16:30:12;99271.59;;;13.80
27715;BMP280;16051;53.024;8.630;2023-03-31T16:34:16;99259.16;;;13.68
27715;BMP280;16051;53.024;8.630;2023-03-31T16:38:20;99260.91;;;13.53
27715;BMP280;16051;53.024;8.630;2023-03-31T16:42:23;99260.53;;;13.43
27715;BMP280;16051;53.024;8.630;2023-03-31T16:46:26;99255.28;;;13.40
27715;BMP280;16051;53.024;8.630;2023-03-31T16:50:29;99254.16;;;13.29
27715;BMP280;16051;53.024;8.630;2023-03-31T16:54:32;99257.53;;;13.22
27715;BMP280;16051;53.024;8.630;2023-03-31T16:58:47;99250.88;;;13.12
27715;BMP280;16051;53.024;8.630;2023-03-31T17:02:49;99251.66;;;13.07
27715;BMP280;16051;53.024;8.630;2023-03-31T17:06:53;99254.72;;;13.04
27715;BMP280;16051;53.024;8.630;2023-03-31T17:15:12;99258.81;;;12.97
27715;BMP280;16051;53.024;8.630;2023-03-31T17:19:17;99255.38;;;12.91
27715;BMP280;16051;53.024;8.630;2023-03-31T17:23:21;99253.91;;;12.84
27715;BMP280;16051;53.024;8.630;2023-03-31T17:27:23;99254.47;;;12.83
27715;BMP280;16051;53.024;8.630;2023-03-31T17:31:25;99253.75;;;12.77
27715;BMP280;16051;53.024;8.630;2023-03-31T17:35:32;99256.81;;;12.73
27715;BMP280;16051;53.024;8.630;2023-03-31T17:39:35;99247.31;;;12.69
27715;BMP280;16051;53.024;8.630;2023-03-31T17:43:43;99253.63;;;12.69
27715;BMP280;16051;53.024;8.630;2023-03-31T17:48:23;99255.75;;;12.58
27715;BMP280;16051;53.024;8.630;2023-03-31T17:52:34;99265.31;;;12.57
27715;BMP280;16051;53.024;8.630;2023-03-31T17:56:40;99270.97;;;12.46
27715;BMP280;16051;53.024;8.630;2023-03-31T18:00:42;99264.03;;;12.33
27715;BMP280;16051;53.024;8.630;2023-03-31T18:04:48;99265.31;;;12.32
27715;BMP280;16051;53.024;8.630;2023-03-31T18:08:51;99262.28;;;12.30
27715;BMP280;16051;53.024;8.630;2023-03-31T18:13:04;99266.63;;;12.26
27715;BMP280;16051;53.024;8.630;2023-03-31T18:17:06;99262.84;;;12.23
27715;BMP280;16051;53.024;8.630;2023-03-31T18:21:12;99277.44;;;12.24
27715;BMP280;16051;53.024;8.630;2023-03-31T18:25:15;99273.19;;;12.23
27715;BMP280;16051;53.024;8.630;2023-03-31T18:29:18;99266.72;;;12.15
27715;BMP280;16051;53.024;8.630;2023-03-31T18:33:20;99277.25;;;12.16
27715;BMP280;16051;53.024;8.630;2023-03-31T18:37:23;99278.81;;;12.12
27715;BMP280;16051;53.024;8.630;2023-03-31T18:41:49;99287.56;;;12.16
27715;BMP280;16051;53.024;8.630;2023-03-31T18:45:55;99280.03;;;12.16
27715;BMP280;16051;53.024;8.630;2023-03-31T18:49:58;99290.75;;;11.96
27715;BMP280;16051;53.024;8.630;2023-03-31T18:54:00;99295.13;;;11.86
27715;BMP280;16051;53.024;8.630;2023-03-31T18:58:03;99299.19;;;11.79
27715;BMP280;16051;53.024;8.630;2023-03-31T19:02:06;99306.28;;;11.63
27715;BMP280;16051;53.024;8.630;2023-03-31T19:06:09;99306.63;;;11.49
27715;BMP280;16051;53.024;8.630;2023-03-31T19:10:17;99302.94;;;11.35
27715;BMP280;16051;53.024;8.630;2023-03-31T19:14:21;99303.69;;;11.30
27715;BMP280;16051;53.024;8.630;2023-03-31T19:18:24;99303.69;;;11.30
27715;BMP280;16051;53.024;8.630;2023-03-31T19:22:35;99301.94;;;11.27
27715;BMP280;16051;53.024;8.630;2023-03-31T19:26:37;99295.66;;;11.26
27715;BMP280;16051;53.024;8.630;2023-03-31T19:30:39;99292.41;;;11.22
27715;BMP280;16051;53.024;8.630;2023-03-31T19:34:45;99304.50;;;11.19
27715;BMP280;16051;53.024;8.630;2023-03-31T19:38:47;99301.50;;;11.17
27715;BMP280;16051;53.024;8.630;2023-03-31T19:42:52;99308.25;;;11.22
27715;BMP280;16051;53.024;8.630;2023-03-31T19:46:54;99305.03;;;11.12
27715;BMP280;16051;53.024;8.630;2023-03-31T19:51:01;99308.09;;;11.03
27715;BMP280;16051;53.024;8.630;2023-03-31T19:55:05;99307.81;;;11.01
27715;BMP280;16051;53.024;8.630;2023-03-31T19:59:12;99308.38;;;10.89
27715;BMP280;16051;53.024;8.630;2023-03-31T20:03:14;99310.13;;;10.92
27715;BMP280;16051;53.024;8.630;2023-03-31T20:07:17;99302.34;;;10.79
27715;BMP280;16051;53.024;8.630;2023-03-31T20:11:20;99315.66;;;10.80
27715;BMP280;16051;53.024;8.630;2023-03-31T20:15:36;99309.91;;;10.73
27715;BMP280;16051;53.024;8.630;2023-03-31T20:19:39;99303.13;;;10.74
27715;BMP280;16051;53.024;8.630;2023-03-31T20:23:44;99301.09;;;10.80
27715;BMP280;16051;53.024;8.630;2023-03-31T20:27:46;99291.09;;;10.77
27715;BMP280;16051;53.024;8.630;2023-03-31T20:31:48;99287.31;;;10.74
27715;BMP280;16051;53.024;8.630;2023-03-31T20:36:26;99298.09;;;10.78
27715;BMP280;16051;53.024;8.630;2023-03-31T20:40:32;99302.34;;;10.79
27715;BMP280;16051;53.024;8.630;2023-03-31T20:44:34;99297.34;;;10.77
27715;BMP280;16051;53.024;8.630;2023-03-31T20:48:43;99295.34;;;10.72
27715;BMP280;16051;53.024;8.630;2023-03-31T20:52:46;99301.63;;;10.67
27715;BMP280;16051;53.024;8.630;2023-03-31T20:56:50;99295.13;;;10.70
27715;BMP280;16051;53.024;8.630;2023-03-31T21:10:15;99292.63;;;10.61
27715;BMP280;16051;53.024;8.630;2023-03-31T21:14:41;99307.94;;;10.62
27715;BMP280;16051;53.024;8.630;2023-03-31T21:31:44;99300.91;;;10.61
27715;BMP280;16051;53.024;8.630;2023-03-31T21:35:49;99307.16;;;10.56
27715;BMP280;16051;53.024;8.630;2023-03-31T21:39:51;99310.91;;;10.64
27715;BMP280;16051;53.024;8.630;2023-03-31T21:43:54;99305.69;;;10.55
27715;BMP280;16051;53.024;8.630;2023-03-31T21:47:59;99310.16;;;10.64
27715;BMP280;16051;53.024;8.630;2023-03-31T21:52:01;99304.16;;;10.54
27715;BMP280;16051;53.024;8.630;2023-03-31T21:56:11;99299.16;;;10.58
27715;BMP280;16051;53.024;8.630;2023-03-31T22:00:13;99309.19;;;10.56
27715;BMP280;16051;53.024;8.630;2023-03-31T22:04:17;99305.41;;;10.53
27715;BMP280;16051;53.024;8.630;2023-03-31T22:08:20;99311.19;;;10.55
27715;BMP280;16051;53.024;8.630;2023-03-31T22:12:23;99300.41;;;10.52
27715;BMP280;16051;53.024;8.630;2023-03-31T22:16:25;99303.69;;;10.56
27715;BMP280;16051;53.024;8.630;2023-03-31T22:20:28;99306.19;;;10.54
27715;BMP280;16051;53.024;8.630;2023-03-31T22:24:32;99302.16;;;10.55
27715;BMP280;16051;53.024;8.630;2023-03-31T22:28:34;99306.69;;;10.52
27715;BMP280;16051;53.024;8.630;2023-03-31T22:32:36;99314.72;;;10.50
27715;BMP280;16051;53.024;8.630;2023-03-31T22:36:40;99305.91;;;10.57
27715;BMP280;16051;53.024;8.630;2023-03-31T22:40:42;99314.44;;;10.54
27715;BMP280;16051;53.024;8.630;2023-03-31T22:44:44;99313.44;;;10.57
27715;BMP280;16051;53.024;8.630;2023-03-31T22:48:52;99313.44;;;10.57
27715;BMP280;16051;53.024;8.630;2023-03-31T22:52:55;99312.69;;;10.56
27715;BMP280;16051;53.024;8.630;2023-03-31T22:57:03;99315.44;;;10.62
27715;BMP280;16051;53.024;8.630;2023-03-31T23:01:06;99319.47;;;10.55
27715;BMP280;16051;53.024;8.630;2023-03-31T23:05:09;99314.47;;;10.59
27715;BMP280;16051;53.024;8.630;2023-03-31T23:09:13;99320.22;;;10.61
27715;BMP280;16051;53.024;8.630;2023-03-31T23:13:24;99320.22;;;10.61
27715;BMP280;16051;53.024;8.630;2023-03-31T23:17:26;99315.19;;;10.65
27715;BMP280;16051;53.024;8.630;2023-03-31T23:21:35;99313.19;;;10.60
27715;BMP280;16051;53.024;8.630;2023-03-31T23:25:41;99325.50;;;10.54
27715;BMP280;16051;53.024;8.630;2023-03-31T23:29:43;99317.97;;;10.60
27715;BMP280;16051;53.024;8.630;2023-03-31T23:33:46;99322.22;;;10.61
27715;BMP280;16051;53.024;8.630;2023-03-31T23:37:48;99316.47;;;10.59
27715;BMP280;16051;53.024;8.630;2023-03-31T23:41:51;99303.66;;;10.50
27715;BMP280;16051;53.024;8.630;2023-03-31T23:45:54;99318.19;;;10.56
27715;BMP280;16051;53.024;8.630;2023-03-31T23:49:56;99309.94;;;10.51
27715;BMP280;16051;53.024;8.630;2023-03-31T23:53:58;99311.19;;;10.55
27715;BMP280;16051;53.024;8.630;2023-03-31T23:58:02;99311.69;;;10.54
